createdAt,value
2022-10-04T00:02:26.655Z,10.12
2022-10-04T00:12:34.068Z,10.09
2022-10-04T00:23:18.319Z,10.09
2022-10-04T00:33:35.596Z,10.08
2022-10-04T00:43:44.133Z,10.10
2022-10-04T00:53:53.965Z,10.09
2022-10-04T01:04:05.883Z,10.08
2022-10-04T01:14:36.868Z,10.07
2022-10-04T01:46:22.263Z,9.90
2022-10-04T02:54:57.926Z,9.71
2022-10-04T03:05:05.466Z,9.70
2022-10-04T03:15:14.108Z,9.75
2022-10-04T03:25:21.249Z,9.80
2022-10-04T03:35:27.274Z,9.81
2022-10-04T03:45:35.409Z,9.78
2022-10-04T03:55:45.987Z,9.70
2022-10-04T04:05:54.130Z,9.69
2022-10-04T04:16:02.504Z,9.72
2022-10-04T04:26:14.616Z,9.72
2022-10-04T04:36:21.885Z,9.65
2022-10-04T04:46:30.471Z,9.55
2022-10-04T04:56:38.608Z,9.55
2022-10-04T05:06:47.327Z,9.60
2022-10-04T05:16:56.518Z,9.63
2022-10-04T05:27:07.311Z,9.68
2022-10-04T05:37:34.226Z,9.72
2022-10-04T05:47:43.768Z,9.80
2022-10-04T05:58:07.407Z,9.85
2022-10-04T06:08:14.637Z,9.89
2022-10-04T06:18:34.517Z,9.85
2022-10-04T06:28:47.133Z,9.86
2022-10-04T06:39:12.311Z,9.96
2022-10-04T06:49:37.466Z,10.13
2022-10-04T06:59:48.022Z,10.24
2022-10-04T07:09:56.231Z,10.21
2022-10-04T07:20:06.519Z,10.18
2022-10-04T07:30:17.975Z,10.45
2022-10-04T07:40:27.493Z,10.93
2022-10-04T07:50:41.782Z,11.13
2022-10-04T08:00:48.533Z,11.37
2022-10-04T08:10:57.310Z,11.50
2022-10-04T08:21:06.714Z,11.47
2022-10-04T08:31:14.261Z,11.60
2022-10-04T08:41:51.713Z,11.82
2022-10-04T08:52:21.730Z,11.97
2022-10-04T09:03:05.398Z,12.11
2022-10-04T09:13:44.740Z,12.70
2022-10-04T09:24:27.608Z,12.60
2022-10-04T09:34:37.464Z,12.81
2022-10-04T09:44:57.430Z,12.57
2022-10-04T09:55:06.956Z,12.77
2022-10-04T10:05:35.641Z,12.87
2022-10-04T10:15:59.742Z,12.82
2022-10-04T10:26:26.874Z,12.45
2022-10-04T10:36:58.723Z,12.50
2022-10-04T10:47:08.585Z,12.47
2022-10-04T10:57:30.628Z,12.40
2022-10-04T11:07:51.764Z,12.63
2022-10-04T11:18:20.492Z,12.65
2022-10-04T11:28:26.744Z,13.09
2022-10-04T11:38:54.048Z,13.42
2022-10-04T11:49:02.851Z,13.42
2022-10-04T11:59:25.610Z,13.36
2022-10-04T12:09:30.675Z,13.51
2022-10-04T12:19:55.733Z,13.34
2022-10-04T12:30:06.233Z,13.46
2022-10-04T12:40:32.572Z,13.84
2022-10-04T12:50:47.654Z,13.91
2022-10-04T13:01:02.215Z,14.06
2022-10-04T13:11:37.001Z,13.81
2022-10-04T13:22:11.914Z,13.48
2022-10-04T13:32:27.375Z,13.31
2022-10-04T13:42:41.753Z,13.52
2022-10-04T13:53:10.966Z,13.82
2022-10-04T14:03:31.828Z,14.10
2022-10-04T14:14:07.983Z,14.02
2022-10-04T14:24:51.992Z,13.78
2022-10-04T14:35:02.410Z,13.59
2022-10-04T14:45:19.094Z,13.49
2022-10-04T14:55:32.090Z,13.38
2022-10-04T15:06:00.489Z,13.20
2022-10-04T15:16:14.234Z,12.99
2022-10-04T15:26:50.275Z,12.84
2022-10-04T15:37:04.963Z,12.72
2022-10-04T15:47:12.637Z,12.57
2022-10-04T15:57:21.790Z,12.31
2022-10-04T16:07:49.066Z,12.00
2022-10-04T16:18:28.186Z,11.72
2022-10-04T16:39:51.404Z,11.40
2022-10-04T16:50:01.967Z,11.03
2022-10-04T17:00:34.040Z,10.54
2022-10-04T17:11:13.396Z,10.03
2022-10-04T17:21:24.686Z,9.80
2022-10-04T17:31:44.788Z,9.79
2022-10-04T17:42:07.215Z,9.90
2022-10-04T18:03:02.477Z,9.74
2022-10-04T18:13:14.575Z,9.54
2022-10-04T18:23:28.409Z,9.50
2022-10-04T18:33:50.305Z,9.45
2022-10-04T18:44:14.462Z,9.36
2022-10-04T18:54:19.727Z,9.26
2022-10-04T19:04:35.132Z,9.05
2022-10-04T19:14:51.063Z,8.90
2022-10-04T19:25:09.725Z,8.84
2022-10-04T19:35:17.701Z,8.88
2022-10-04T19:45:27.236Z,8.91
2022-10-04T19:55:33.315Z,8.89
2022-10-04T20:05:43.612Z,8.68
2022-10-04T20:15:49.341Z,8.41
2022-10-04T20:26:06.755Z,8.32
2022-10-04T20:36:15.391Z,8.27
2022-10-04T20:46:26.382Z,8.27
2022-10-04T20:56:37.664Z,8.29
2022-10-04T21:17:02.689Z,8.23
2022-10-04T21:37:18.904Z,7.82
2022-10-04T21:47:25.598Z,7.84
2022-10-04T21:57:35.525Z,8.00
2022-10-04T22:07:54.840Z,7.96
2022-10-04T22:18:01.901Z,8.08
2022-10-04T22:28:14.958Z,8.20
2022-10-04T22:38:22.995Z,8.26
2022-10-04T22:48:30.226Z,8.15
2022-10-04T22:58:37.274Z,8.00
2022-10-04T23:08:44.513Z,7.89
2022-10-04T23:18:51.850Z,7.88
2022-10-04T23:29:00.072Z,7.84
2022-10-04T23:39:15.045Z,7.82
2022-10-04T23:49:22.867Z,7.77
2022-10-04T23:59:30.193Z,7.75
